createdAt,value
2017-07-16T00:00:25.922Z,1017.87
2017-07-16T00:01:34.834Z,1017.85
2017-07-16T00:02:43.745Z,1017.88
2017-07-16T00:03:52.699Z,1017.9
2017-07-16T00:05:01.658Z,1017.87
2017-07-16T00:06:10.571Z,1017.86
2017-07-16T00:07:19.483Z,1017.86
2017-07-16T00:08:28.398Z,1017.87
2017-07-16T00:09:37.311Z,1017.85
2017-07-16T00:10:46.228Z,1017.84
2017-07-16T00:11:55.343Z,1017.87
2017-07-16T00:13:04.326Z,1017.87
2017-07-16T00:14:13.274Z,1017.89
2017-07-16T00:15:22.254Z,1017.88
2017-07-16T00:16:31.259Z,1017.91
2017-07-16T00:17:40.170Z,1017.9
2017-07-16T00:18:49.083Z,1017.89
2017-07-16T00:19:57.994Z,1017.92
2017-07-16T00:21:06.909Z,1017.92
2017-07-16T00:22:15.835Z,1017.91
2017-07-16T00:23:25.082Z,1017.94
2017-07-16T00:24:33.992Z,1017.9
2017-07-16T00:25:42.904Z,1017.89
2017-07-16T00:26:51.819Z,1017.89
2017-07-16T00:28:00.731Z,1017.91
2017-07-16T00:29:09.644Z,1017.86
2017-07-16T00:30:18.566Z,1017.85
2017-07-16T00:31:27.480Z,1017.9
2017-07-16T00:32:36.393Z,1017.9
2017-07-16T00:33:45.304Z,1017.9
2017-07-16T00:34:54.217Z,1017.9
2017-07-16T00:36:03.128Z,1017.9
2017-07-16T00:37:12.041Z,1017.89
2017-07-16T00:38:20.950Z,1017.9
2017-07-16T00:39:29.865Z,1017.89
2017-07-16T00:40:38.787Z,1017.87
2017-07-16T00:41:47.690Z,1017.9
2017-07-16T00:42:56.603Z,1017.93
2017-07-16T00:44:05.514Z,1017.93
2017-07-16T00:45:14.426Z,1017.94
2017-07-16T00:46:23.339Z,1017.96
2017-07-16T00:47:32.261Z,1017.96
2017-07-16T00:48:41.176Z,1017.95
2017-07-16T00:49:50.088Z,1017.98
2017-07-16T00:50:59.015Z,1018
2017-07-16T00:52:07.914Z,1017.99
2017-07-16T00:53:16.913Z,1017.99
2017-07-16T00:54:25.899Z,1018
2017-07-16T00:55:34.812Z,1017.96
2017-07-16T00:56:43.722Z,1017.97
2017-07-16T00:57:52.635Z,1017.97
2017-07-16T00:59:01.550Z,1017.96
2017-07-16T01:00:10.470Z,1017.95
2017-07-16T01:01:19.386Z,1017.97
2017-07-16T01:02:28.323Z,1017.98
2017-07-16T01:03:37.271Z,1017.94
2017-07-16T01:04:46.214Z,1017.96
2017-07-16T01:05:55.123Z,1017.96
2017-07-16T01:07:04.183Z,1017.94
2017-07-16T01:08:13.142Z,1017.93
2017-07-16T01:09:22.053Z,1017.93
2017-07-16T01:10:30.960Z,1017.93
2017-07-16T01:11:39.876Z,1017.94
2017-07-16T01:12:48.786Z,1017.91
2017-07-16T01:13:57.750Z,1017.96
2017-07-16T01:15:06.658Z,1017.97
2017-07-16T01:16:15.662Z,1017.91
2017-07-16T01:17:24.742Z,1017.93
2017-07-16T01:18:33.688Z,1017.93
2017-07-16T01:19:42.785Z,1017.97
2017-07-16T01:20:51.784Z,1017.95
2017-07-16T01:22:00.826Z,1017.94
2017-07-16T01:23:09.833Z,1017.95
2017-07-16T01:24:18.746Z,1017.95
2017-07-16T01:25:27.656Z,1018.02
2017-07-16T01:26:36.573Z,1017.96
2017-07-16T01:27:45.572Z,1017.94
2017-07-16T01:28:54.730Z,1017.93
2017-07-16T01:30:03.642Z,1017.96
2017-07-16T01:31:13.105Z,1017.97
2017-07-16T01:32:22.319Z,1017.93
2017-07-16T01:33:31.456Z,1017.91
2017-07-16T01:34:40.706Z,1017.95
2017-07-16T01:35:49.813Z,1017.94
2017-07-16T01:36:58.932Z,1017.94
2017-07-16T01:38:07.885Z,1017.87
2017-07-16T01:39:16.994Z,1017.88
2017-07-16T01:40:25.948Z,1017.9
2017-07-16T01:41:35.120Z,1017.85
2017-07-16T01:42:44.287Z,1017.93
2017-07-16T01:43:53.313Z,1017.9
2017-07-16T01:45:02.497Z,1017.9
2017-07-16T01:46:11.715Z,1017.9
2017-07-16T01:47:20.627Z,1017.88
2017-07-16T01:48:29.541Z,1017.93
2017-07-16T01:49:38.454Z,1017.95
2017-07-16T01:50:47.370Z,1017.95
2017-07-16T01:51:56.291Z,1017.98
2017-07-16T01:53:05.204Z,1017.95
2017-07-16T01:54:14.116Z,1017.94
2017-07-16T01:55:23.026Z,1017.93
2017-07-16T01:56:31.940Z,1017.97
2017-07-16T01:57:40.851Z,1017.94
2017-07-16T01:58:49.765Z,1017.95
2017-07-16T01:59:58.677Z,1017.97
2017-07-16T02:01:07.918Z,1017.96
2017-07-16T02:02:16.834Z,1017.96
2017-07-16T02:03:25.747Z,1017.92
2017-07-16T02:04:34.658Z,1017.91
2017-07-16T02:05:43.569Z,1017.89
2017-07-16T02:06:52.481Z,1017.91
2017-07-16T02:08:01.477Z,1017.94
2017-07-16T02:09:10.392Z,1017.88
2017-07-16T02:10:19.303Z,1017.86
2017-07-16T02:11:28.216Z,1017.9
2017-07-16T02:12:37.461Z,1017.9
2017-07-16T02:13:46.376Z,1017.93
2017-07-16T02:14:55.288Z,1017.91
2017-07-16T02:16:04.201Z,1017.88
2017-07-16T02:17:13.111Z,1017.89
2017-07-16T02:18:22.021Z,1017.92
2017-07-16T02:19:30.934Z,1017.9
2017-07-16T02:20:39.846Z,1017.91
2017-07-16T02:21:48.758Z,1017.91
2017-07-16T02:22:57.671Z,1017.94
2017-07-16T02:24:06.580Z,1017.97
2017-07-16T02:25:15.498Z,1017.91
2017-07-16T02:26:24.740Z,1017.92
2017-07-16T02:27:33.653Z,1017.94
2017-07-16T02:28:42.563Z,1017.93
2017-07-16T02:29:51.473Z,1017.94
2017-07-16T02:31:00.383Z,1017.91
2017-07-16T02:32:09.291Z,1017.9
2017-07-16T02:33:18.293Z,1017.89
2017-07-16T02:34:27.206Z,1017.92
2017-07-16T02:35:36.204Z,1017.88
2017-07-16T02:36:45.115Z,1017.9
2017-07-16T02:37:54.027Z,1017.9
2017-07-16T02:39:03.025Z,1017.89
2017-07-16T02:40:11.939Z,1017.92
2017-07-16T02:41:20.853Z,1017.93
2017-07-16T02:42:29.766Z,1017.93
2017-07-16T02:43:38.680Z,1017.94
2017-07-16T02:44:47.592Z,1017.94
2017-07-16T02:45:56.601Z,1017.94
2017-07-16T02:47:05.515Z,1017.96
2017-07-16T02:48:14.426Z,1017.96
2017-07-16T02:49:23.340Z,1017.98
2017-07-16T02:50:32.251Z,1017.97
2017-07-16T02:51:41.163Z,1017.94
2017-07-16T02:52:50.079Z,1017.92
2017-07-16T02:53:58.992Z,1017.91
2017-07-16T02:55:07.906Z,1017.91
2017-07-16T02:56:16.814Z,1017.93
2017-07-16T02:57:25.728Z,1017.94
2017-07-16T02:58:34.639Z,1017.91
2017-07-16T02:59:43.551Z,1017.95
2017-07-16T03:00:52.460Z,1017.97
2017-07-16T03:02:01.372Z,1017.96
2017-07-16T03:03:10.282Z,1017.96
2017-07-16T03:04:19.195Z,1017.94
2017-07-16T03:05:28.111Z,1017.96
2017-07-16T03:06:37.032Z,1017.97
2017-07-16T03:07:45.944Z,1017.98
2017-07-16T03:08:54.857Z,1017.98
2017-07-16T03:10:03.766Z,1017.96
2017-07-16T03:11:12.678Z,1018.05
2017-07-16T03:12:21.587Z,1018.02
2017-07-16T03:13:30.500Z,1018.03
2017-07-16T03:14:39.412Z,1018.04
2017-07-16T03:15:48.324Z,1018
2017-07-16T03:16:57.234Z,1018.01
2017-07-16T03:18:06.144Z,1018.05
2017-07-16T03:19:15.056Z,1017.98
2017-07-16T03:20:23.969Z,1017.99
2017-07-16T03:21:32.878Z,1017.99
2017-07-16T03:22:41.873Z,1017.99
2017-07-16T03:23:50.788Z,1018.01
2017-07-16T03:24:59.700Z,1017.99
2017-07-16T03:26:08.612Z,1018.01
2017-07-16T03:27:17.523Z,1018.03
2017-07-16T03:28:26.439Z,1018.01
2017-07-16T03:29:35.351Z,1018
2017-07-16T03:30:44.262Z,1018.06
2017-07-16T03:31:53.255Z,1018.03
2017-07-16T03:33:02.167Z,1018.05
2017-07-16T03:34:11.078Z,1018.02
2017-07-16T03:35:19.992Z,1017.99
2017-07-16T03:36:28.910Z,1018.02
2017-07-16T03:37:37.823Z,1018.04
2017-07-16T03:38:46.734Z,1018.05
2017-07-16T03:39:55.646Z,1018.02
2017-07-16T03:41:04.568Z,1018.06
2017-07-16T03:42:13.480Z,1018.05
2017-07-16T03:43:22.393Z,1018.04
2017-07-16T03:44:31.305Z,1018.05
2017-07-16T03:45:40.220Z,1018.05
2017-07-16T03:46:49.130Z,1018.04
2017-07-16T03:47:58.042Z,1018.04
2017-07-16T03:49:06.951Z,1018.03
2017-07-16T03:50:15.866Z,1018.03
2017-07-16T03:51:24.774Z,1018
2017-07-16T03:52:33.682Z,1018.03
2017-07-16T03:53:42.594Z,1017.98
2017-07-16T03:54:51.504Z,1018
2017-07-16T03:56:00.417Z,1018.01
2017-07-16T03:57:09.332Z,1017.96
2017-07-16T03:58:18.243Z,1017.99
2017-07-16T03:59:27.157Z,1017.93
2017-07-16T04:00:36.067Z,1017.96
2017-07-16T04:01:44.977Z,1018.01
2017-07-16T04:02:53.891Z,1018.04
2017-07-16T04:04:02.801Z,1018.04
2017-07-16T04:05:11.712Z,1018.1
2017-07-16T04:06:20.622Z,1018.09
2017-07-16T04:07:29.532Z,1018.09
2017-07-16T04:08:38.446Z,1018.07
2017-07-16T04:09:47.358Z,1018.05
2017-07-16T04:10:56.269Z,1018.08
2017-07-16T04:12:05.185Z,1018.1
2017-07-16T04:13:14.091Z,1018.07
2017-07-16T04:14:23.004Z,1018.06
2017-07-16T04:15:31.918Z,1018.06
2017-07-16T04:16:40.918Z,1018.03
2017-07-16T04:17:49.828Z,1018.02
2017-07-16T04:18:58.740Z,1018.02
2017-07-16T04:20:07.738Z,1018.02
2017-07-16T04:21:16.647Z,1017.99
2017-07-16T04:22:25.558Z,1017.99
2017-07-16T04:23:34.467Z,1018.01
2017-07-16T04:24:43.385Z,1018.03
2017-07-16T04:25:52.298Z,1018.01
2017-07-16T04:27:01.218Z,1018.05
2017-07-16T04:28:10.218Z,1018.04
2017-07-16T04:29:19.140Z,1018.1
2017-07-16T04:30:28.055Z,1018.12
2017-07-16T04:31:37.302Z,1018.13
2017-07-16T04:32:46.225Z,1018.11
2017-07-16T04:33:55.228Z,1018.14
2017-07-16T04:35:04.146Z,1018.14
2017-07-16T04:36:13.065Z,1018.13
2017-07-16T04:37:21.980Z,1018.13
2017-07-16T04:38:30.896Z,1018.12
2017-07-16T04:39:39.811Z,1018.1
2017-07-16T04:40:48.732Z,1018.11
2017-07-16T04:41:57.650Z,1018.11
2017-07-16T04:43:06.569Z,1018.08
2017-07-16T04:44:15.572Z,1018.13
2017-07-16T04:45:24.492Z,1018.1
2017-07-16T04:46:33.407Z,1018.11
2017-07-16T04:47:42.328Z,1018.09
2017-07-16T04:48:51.247Z,1018.12
2017-07-16T04:50:00.168Z,1018.12
2017-07-16T04:51:09.085Z,1018.1
2017-07-16T04:52:18.093Z,1018.16
2017-07-16T04:53:27.007Z,1018.17
2017-07-16T04:54:35.929Z,1018.17
2017-07-16T04:55:44.848Z,1018.22
2017-07-16T04:56:53.771Z,1018.24
2017-07-16T04:58:02.688Z,1018.22
2017-07-16T04:59:11.602Z,1018.27
2017-07-16T05:00:20.522Z,1018.25
2017-07-16T05:01:29.435Z,1018.25
2017-07-16T05:02:38.353Z,1018.24
2017-07-16T05:03:47.272Z,1018.29
2017-07-16T05:04:56.190Z,1018.29
2017-07-16T05:06:05.110Z,1018.27
2017-07-16T05:07:14.023Z,1018.31
2017-07-16T05:08:22.949Z,1018.34
2017-07-16T05:09:31.874Z,1018.31
2017-07-16T05:10:40.790Z,1018.33
2017-07-16T05:11:49.707Z,1018.36
2017-07-16T05:12:58.630Z,1018.34
2017-07-16T05:14:07.555Z,1018.3
2017-07-16T05:15:16.479Z,1018.3
2017-07-16T05:16:25.395Z,1018.33
2017-07-16T05:17:34.314Z,1018.3
2017-07-16T05:18:43.236Z,1018.31
2017-07-16T05:19:52.154Z,1018.3
2017-07-16T05:21:01.077Z,1018.29
2017-07-16T05:22:10.002Z,1018.35
2017-07-16T05:23:18.916Z,1018.35
2017-07-16T05:24:27.845Z,1018.37
2017-07-16T05:25:36.759Z,1018.31
2017-07-16T05:26:45.680Z,1018.32
2017-07-16T05:27:54.609Z,1018.26
2017-07-16T05:29:03.530Z,1018.23
2017-07-16T05:30:12.453Z,1018.21
2017-07-16T05:31:21.373Z,1018.26
2017-07-16T05:32:30.292Z,1018.24
2017-07-16T05:33:39.211Z,1018.29
2017-07-16T05:34:48.132Z,1018.33
2017-07-16T05:35:57.052Z,1018.32
2017-07-16T05:37:06.052Z,1018.34
2017-07-16T05:38:14.972Z,1018.39
2017-07-16T05:39:23.888Z,1018.43
2017-07-16T05:40:32.806Z,1018.41
2017-07-16T05:41:41.731Z,1018.37
2017-07-16T05:42:50.655Z,1018.4
2017-07-16T05:43:59.575Z,1018.39
2017-07-16T05:45:08.492Z,1018.41
2017-07-16T05:46:17.415Z,1018.44
2017-07-16T05:47:26.333Z,1018.4
2017-07-16T05:48:35.261Z,1018.47
2017-07-16T05:49:44.179Z,1018.42
2017-07-16T05:50:53.101Z,1018.46
2017-07-16T05:52:02.028Z,1018.48
2017-07-16T05:53:10.950Z,1018.46
2017-07-16T05:54:19.871Z,1018.51
2017-07-16T05:55:28.792Z,1018.48
2017-07-16T05:56:37.712Z,1018.48
2017-07-16T05:57:46.636Z,1018.47
2017-07-16T05:58:55.552Z,1018.5
2017-07-16T06:00:04.469Z,1018.5
2017-07-16T06:01:13.394Z,1018.5
2017-07-16T06:02:22.312Z,1018.48
2017-07-16T06:03:31.240Z,1018.5
2017-07-16T06:04:40.158Z,1018.5
2017-07-16T06:05:49.088Z,1018.52
2017-07-16T06:06:58.010Z,1018.52
2017-07-16T06:08:06.925Z,1018.55
2017-07-16T06:09:15.845Z,1018.59
2017-07-16T06:10:24.774Z,1018.53
2017-07-16T06:11:33.698Z,1018.52
2017-07-16T06:12:42.619Z,1018.47
2017-07-16T06:13:51.529Z,1018.48
2017-07-16T06:15:00.455Z,1018.52
2017-07-16T06:16:09.465Z,1018.55
2017-07-16T06:17:18.394Z,1018.55
2017-07-16T06:18:27.314Z,1018.52
2017-07-16T06:19:36.234Z,1018.55
2017-07-16T06:20:45.152Z,1018.54
2017-07-16T06:21:54.367Z,1018.57
2017-07-16T06:23:03.283Z,1018.56
2017-07-16T06:24:12.311Z,1018.59
2017-07-16T06:25:21.232Z,1018.6
2017-07-16T06:26:30.154Z,1018.6
2017-07-16T06:27:39.073Z,1018.57
2017-07-16T06:28:47.994Z,1018.58
2017-07-16T06:29:56.915Z,1018.58
2017-07-16T06:31:05.837Z,1018.62
2017-07-16T06:32:14.759Z,1018.6
2017-07-16T06:33:23.685Z,1018.57
2017-07-16T06:34:32.600Z,1018.6
2017-07-16T06:35:41.524Z,1018.57
2017-07-16T06:36:50.438Z,1018.6
2017-07-16T06:37:59.358Z,1018.59
2017-07-16T06:39:08.278Z,1018.59
2017-07-16T06:40:17.194Z,1018.62
2017-07-16T06:41:26.111Z,1018.6
2017-07-16T06:42:35.031Z,1018.61
2017-07-16T06:43:43.959Z,1018.59
2017-07-16T06:44:52.881Z,1018.59
2017-07-16T06:46:01.794Z,1018.55
2017-07-16T06:47:10.718Z,1018.63
2017-07-16T06:48:19.633Z,1018.64
2017-07-16T06:49:28.554Z,1018.63
2017-07-16T06:50:37.478Z,1018.65
2017-07-16T06:51:46.400Z,1018.67
2017-07-16T06:52:55.326Z,1018.65
2017-07-16T06:54:04.248Z,1018.66
2017-07-16T06:55:13.164Z,1018.65
2017-07-16T06:56:22.079Z,1018.65
2017-07-16T06:57:30.997Z,1018.66
2017-07-16T06:58:39.922Z,1018.66
2017-07-16T06:59:48.839Z,1018.68
2017-07-16T07:00:57.761Z,1018.67
2017-07-16T07:02:06.691Z,1018.66
2017-07-16T07:03:15.618Z,1018.63
2017-07-16T07:04:24.538Z,1018.63
2017-07-16T07:05:33.517Z,1018.67
2017-07-16T07:06:42.446Z,1018.67
2017-07-16T07:07:51.371Z,1018.67
2017-07-16T07:09:00.386Z,1018.68
2017-07-16T07:10:09.306Z,1018.68
2017-07-16T07:11:18.224Z,1018.67
2017-07-16T07:12:27.138Z,1018.69
2017-07-16T07:13:36.151Z,1018.68
2017-07-16T07:14:45.071Z,1018.68
2017-07-16T07:15:54.037Z,1018.73
2017-07-16T07:17:02.957Z,1018.68
2017-07-16T07:18:11.875Z,1018.68
2017-07-16T07:19:20.811Z,1018.72
2017-07-16T07:20:29.726Z,1018.67
2017-07-16T07:21:38.703Z,1018.69
2017-07-16T07:22:48.099Z,1018.68
2017-07-16T07:23:57.024Z,1018.66
2017-07-16T07:25:06.154Z,1018.67
2017-07-16T07:26:15.318Z,1018.65
2017-07-16T07:27:24.572Z,1018.65
2017-07-16T07:28:33.533Z,1018.63
2017-07-16T07:29:42.452Z,1018.65
2017-07-16T07:30:51.367Z,1018.68
2017-07-16T07:32:00.450Z,1018.71
2017-07-16T07:33:09.638Z,1018.73
2017-07-16T07:34:18.901Z,1018.71
2017-07-16T07:35:28.143Z,1018.73
2017-07-16T07:36:37.232Z,1018.72
2017-07-16T07:37:46.349Z,1018.73
2017-07-16T07:38:55.481Z,1018.74
2017-07-16T07:40:04.662Z,1018.76
2017-07-16T07:41:13.718Z,1018.77
2017-07-16T07:42:22.817Z,1018.74
2017-07-16T07:43:31.909Z,1018.72
2017-07-16T07:44:40.877Z,1018.69
2017-07-16T07:45:50.142Z,1018.73
2017-07-16T07:46:59.333Z,1018.68
2017-07-16T07:48:08.469Z,1018.67
2017-07-16T07:49:17.398Z,1018.67
2017-07-16T07:50:26.370Z,1018.69
2017-07-16T07:51:35.500Z,1018.69
2017-07-16T07:52:44.527Z,1018.72
2017-07-16T07:53:53.666Z,1018.71
2017-07-16T07:55:02.920Z,1018.69
2017-07-16T07:56:11.842Z,1018.66
2017-07-16T07:57:20.768Z,1018.68
2017-07-16T07:58:29.695Z,1018.75
2017-07-16T07:59:38.621Z,1018.76
2017-07-16T08:00:47.548Z,1018.7
2017-07-16T08:01:56.753Z,1018.69
2017-07-16T08:03:05.729Z,1018.71
2017-07-16T08:04:14.741Z,1018.73
2017-07-16T08:05:23.780Z,1018.67
2017-07-16T08:06:32.886Z,1018.7
2017-07-16T08:07:42.068Z,1018.69
2017-07-16T08:08:51.038Z,1018.66
2017-07-16T08:10:00.032Z,1018.68
2017-07-16T08:11:09.303Z,1018.68
2017-07-16T08:12:18.348Z,1018.68
2017-07-16T08:13:27.524Z,1018.68
2017-07-16T08:14:36.832Z,1018.66
2017-07-16T08:15:45.820Z,1018.71
2017-07-16T08:16:54.878Z,1018.72
2017-07-16T08:18:03.995Z,1018.72
2017-07-16T08:19:13.049Z,1018.72
2017-07-16T08:20:22.327Z,1018.64
2017-07-16T08:21:31.771Z,1018.65
2017-07-16T08:22:41.018Z,1018.64
2017-07-16T08:23:50.274Z,1018.6
2017-07-16T08:24:59.339Z,1018.55
2017-07-16T08:26:08.394Z,1018.5
2017-07-16T08:27:17.624Z,1018.49
2017-07-16T08:28:26.829Z,1018.54
2017-07-16T08:29:36.239Z,1018.52
2017-07-16T08:30:45.449Z,1018.58
2017-07-16T08:31:54.597Z,1018.6
2017-07-16T08:33:03.789Z,1018.55
2017-07-16T08:34:13.048Z,1018.54
2017-07-16T08:35:22.010Z,1018.49
2017-07-16T08:36:31.074Z,1018.54
2017-07-16T08:37:40.230Z,1018.5
2017-07-16T08:38:49.236Z,1018.51
2017-07-16T08:39:58.162Z,1018.47
2017-07-16T08:41:07.088Z,1018.47
2017-07-16T08:42:16.043Z,1018.44
2017-07-16T08:43:24.992Z,1018.45
2017-07-16T08:44:33.944Z,1018.46
2017-07-16T08:45:42.893Z,1018.46
2017-07-16T08:46:51.841Z,1018.43
2017-07-16T08:48:00.807Z,1018.42
2017-07-16T08:49:09.761Z,1018.41
2017-07-16T08:50:18.705Z,1018.45
2017-07-16T08:51:27.652Z,1018.47
2017-07-16T08:52:36.595Z,1018.46
2017-07-16T08:53:45.539Z,1018.43
2017-07-16T08:54:54.487Z,1018.44
2017-07-16T08:56:03.766Z,1018.44
2017-07-16T08:57:12.802Z,1018.41
2017-07-16T08:58:21.751Z,1018.47
2017-07-16T08:59:30.791Z,1018.49
2017-07-16T09:00:39.828Z,1018.48
2017-07-16T09:01:48.777Z,1018.43
2017-07-16T09:02:57.770Z,1018.44
2017-07-16T09:04:06.720Z,1018.39
2017-07-16T09:05:15.672Z,1018.43
2017-07-16T09:06:24.615Z,1018.42
2017-07-16T09:07:33.559Z,1018.46
2017-07-16T09:08:42.513Z,1018.43
2017-07-16T09:09:51.457Z,1018.45
2017-07-16T09:11:00.398Z,1018.4
2017-07-16T09:12:09.350Z,1018.42
2017-07-16T09:13:18.299Z,1018.36
2017-07-16T09:14:27.243Z,1018.4
2017-07-16T09:15:36.203Z,1018.39
2017-07-16T09:16:45.148Z,1018.38
2017-07-16T09:17:54.089Z,1018.38
2017-07-16T09:19:03.037Z,1018.42
2017-07-16T09:20:12.079Z,1018.41
2017-07-16T09:21:21.362Z,1018.37
2017-07-16T09:22:30.314Z,1018.39
2017-07-16T09:23:39.263Z,1018.37
2017-07-16T09:24:48.204Z,1018.36
2017-07-16T09:25:57.154Z,1018.35
2017-07-16T09:27:06.114Z,1018.34
2017-07-16T09:28:15.055Z,1018.28
2017-07-16T09:29:24.327Z,1018.33
2017-07-16T09:30:33.275Z,1018.29
2017-07-16T09:31:42.224Z,1018.29
2017-07-16T09:32:51.174Z,1018.23
2017-07-16T09:34:00.128Z,1018.24
2017-07-16T09:35:09.087Z,1018.27
2017-07-16T09:36:18.030Z,1018.25
2017-07-16T09:37:27.068Z,1018.25
2017-07-16T09:38:36.019Z,1018.25
2017-07-16T09:39:44.962Z,1018.21
2017-07-16T09:40:53.903Z,1018.2
2017-07-16T09:42:02.850Z,1018.2
2017-07-16T09:43:11.880Z,1018.18
2017-07-16T09:44:20.840Z,1018.2
2017-07-16T09:45:29.794Z,1018.15
2017-07-16T09:46:38.834Z,1018.13
2017-07-16T09:47:47.788Z,1018.13
2017-07-16T09:48:57.068Z,1018.08
2017-07-16T09:50:06.013Z,1018.11
2017-07-16T09:51:14.968Z,1018.05
2017-07-16T09:52:23.913Z,1018.05
2017-07-16T09:53:32.852Z,1017.99
2017-07-16T09:54:41.797Z,1018
2017-07-16T09:55:50.741Z,1018
2017-07-16T09:56:59.691Z,1018.03
2017-07-16T09:58:08.642Z,1018
2017-07-16T09:59:17.585Z,1018.04
2017-07-16T10:00:26.536Z,1017.98
2017-07-16T10:01:35.495Z,1017.97
2017-07-16T10:02:44.478Z,1018.01
2017-07-16T10:03:53.434Z,1018.02
2017-07-16T10:05:02.470Z,1017.98
2017-07-16T10:06:11.419Z,1018.01
2017-07-16T10:07:20.368Z,1018
2017-07-16T10:08:29.321Z,1017.94
2017-07-16T10:09:38.273Z,1018
2017-07-16T10:10:47.222Z,1017.99
2017-07-16T10:11:56.170Z,1017.96
2017-07-16T10:13:05.112Z,1017.97
2017-07-16T10:14:14.056Z,1018.01
2017-07-16T10:15:23.006Z,1017.93
2017-07-16T10:16:31.956Z,1017.91
2017-07-16T10:17:40.899Z,1017.9
2017-07-16T10:18:49.843Z,1017.92
2017-07-16T10:19:58.797Z,1017.9
2017-07-16T10:21:07.743Z,1017.95
2017-07-16T10:22:16.696Z,1017.94
2017-07-16T10:23:25.645Z,1017.92
2017-07-16T10:24:34.595Z,1017.81
2017-07-16T10:25:43.538Z,1017.87
2017-07-16T10:26:52.491Z,1017.83
2017-07-16T10:28:01.413Z,1017.86
2017-07-16T10:29:10.384Z,1017.85
2017-07-16T10:30:19.310Z,1017.87
2017-07-16T10:31:28.282Z,1017.83
2017-07-16T10:32:37.250Z,1017.79
2017-07-16T10:33:46.321Z,1017.84
2017-07-16T10:34:55.247Z,1017.82
2017-07-16T10:36:04.391Z,1017.81
2017-07-16T10:37:13.322Z,1017.78
2017-07-16T10:38:22.272Z,1017.75
2017-07-16T10:39:31.228Z,1017.75
2017-07-16T10:40:40.286Z,1017.73
2017-07-16T10:41:49.246Z,1017.73
2017-07-16T10:42:58.192Z,1017.76
2017-07-16T10:44:07.116Z,1017.76
2017-07-16T10:45:16.055Z,1017.7
2017-07-16T10:46:24.975Z,1017.7
2017-07-16T10:47:33.901Z,1017.74
2017-07-16T10:48:42.826Z,1017.7
2017-07-16T10:49:51.804Z,1017.74
2017-07-16T10:51:00.859Z,1017.72
2017-07-16T10:52:09.790Z,1017.74
2017-07-16T10:53:18.715Z,1017.73
2017-07-16T10:54:27.681Z,1017.75
2017-07-16T10:55:36.606Z,1017.77
2017-07-16T10:56:45.529Z,1017.74
2017-07-16T10:57:54.451Z,1017.68
2017-07-16T10:59:03.444Z,1017.68
2017-07-16T11:00:12.452Z,1017.66
2017-07-16T11:01:21.557Z,1017.65
2017-07-16T11:02:30.500Z,1017.66
2017-07-16T11:03:39.422Z,1017.64
2017-07-16T11:04:48.350Z,1017.61
2017-07-16T11:05:57.274Z,1017.59
2017-07-16T11:07:06.196Z,1017.61
2017-07-16T11:08:15.117Z,1017.61
2017-07-16T11:09:24.042Z,1017.61
2017-07-16T11:10:32.960Z,1017.62
2017-07-16T11:11:41.892Z,1017.61
2017-07-16T11:12:50.820Z,1017.6
2017-07-16T11:13:59.740Z,1017.58
2017-07-16T11:15:08.662Z,1017.57
2017-07-16T11:16:17.585Z,1017.53
2017-07-16T11:17:26.509Z,1017.57
2017-07-16T11:18:35.436Z,1017.55
2017-07-16T11:19:44.357Z,1017.5
2017-07-16T11:20:53.275Z,1017.54
2017-07-16T11:22:02.194Z,1017.53
2017-07-16T11:23:11.210Z,1017.52
2017-07-16T11:24:20.130Z,1017.53
2017-07-16T11:25:29.052Z,1017.52
2017-07-16T11:26:37.974Z,1017.51
2017-07-16T11:27:46.903Z,1017.52
2017-07-16T11:28:55.856Z,1017.52
2017-07-16T11:30:04.760Z,1017.48
2017-07-16T11:31:14.017Z,1017.48
2017-07-16T11:32:22.943Z,1017.51
2017-07-16T11:33:31.863Z,1017.54
2017-07-16T11:34:40.790Z,1017.52
2017-07-16T11:35:49.711Z,1017.5
2017-07-16T11:36:58.631Z,1017.49
2017-07-16T11:38:07.558Z,1017.48
2017-07-16T11:39:16.487Z,1017.45
2017-07-16T11:40:25.419Z,1017.45
2017-07-16T11:41:34.360Z,1017.45
2017-07-16T11:42:43.288Z,1017.4
2017-07-16T11:43:52.217Z,1017.38
2017-07-16T11:45:01.138Z,1017.39
2017-07-16T11:46:10.064Z,1017.42
2017-07-16T11:47:18.989Z,1017.31
2017-07-16T11:48:27.945Z,1017.34
2017-07-16T11:49:36.927Z,1017.34
2017-07-16T11:50:45.855Z,1017.37
2017-07-16T11:51:54.784Z,1017.36
2017-07-16T11:53:03.706Z,1017.34
2017-07-16T11:54:12.631Z,1017.36
2017-07-16T11:55:21.558Z,1017.33
2017-07-16T11:56:30.486Z,1017.31
2017-07-16T11:57:39.411Z,1017.27
2017-07-16T11:58:48.336Z,1017.29
2017-07-16T11:59:57.261Z,1017.29
2017-07-16T12:01:06.190Z,1017.32
2017-07-16T12:02:15.107Z,1017.32
2017-07-16T12:03:24.033Z,1017.28
2017-07-16T12:04:32.958Z,1017.27
2017-07-16T12:05:41.882Z,1017.24
2017-07-16T12:06:50.816Z,1017.22
2017-07-16T12:07:59.738Z,1017.22
2017-07-16T12:09:08.663Z,1017.2
2017-07-16T12:10:17.672Z,1017.23
2017-07-16T12:11:26.593Z,1017.19
2017-07-16T12:12:35.516Z,1017.2
2017-07-16T12:13:44.445Z,1017.24
2017-07-16T12:14:53.366Z,1017.21
2017-07-16T12:16:02.295Z,1017.2
2017-07-16T12:17:11.221Z,1017.2
2017-07-16T12:18:20.160Z,1017.19
2017-07-16T12:19:29.070Z,1017.21
2017-07-16T12:20:37.989Z,1017.19
2017-07-16T12:21:46.907Z,1017.21
2017-07-16T12:22:55.829Z,1017.19
2017-07-16T12:24:04.752Z,1017.17
2017-07-16T12:25:13.672Z,1017.2
2017-07-16T12:26:22.599Z,1017.17
2017-07-16T12:27:31.519Z,1017.15
2017-07-16T12:28:40.439Z,1017.16
2017-07-16T12:29:49.369Z,1017.13
2017-07-16T12:30:58.296Z,1017.11
2017-07-16T12:32:07.222Z,1017.13
2017-07-16T12:33:16.149Z,1017.11
2017-07-16T12:34:25.072Z,1017.13
2017-07-16T12:35:33.997Z,1017.13
2017-07-16T12:36:42.918Z,1017.13
2017-07-16T12:37:51.845Z,1017.09
2017-07-16T12:39:00.768Z,1017.09
2017-07-16T12:40:09.687Z,1017.07
2017-07-16T12:41:18.614Z,1017.09
2017-07-16T12:42:27.609Z,1017.09
2017-07-16T12:43:37.850Z,1017.09
2017-07-16T12:44:47.434Z,1017.06
2017-07-16T12:45:57.109Z,1017.07
2017-07-16T12:47:06.041Z,1017.07
2017-07-16T12:48:14.969Z,1017.05
2017-07-16T12:49:23.892Z,1017.02
2017-07-16T12:50:32.818Z,1016.99
2017-07-16T12:51:41.799Z,1017.02
2017-07-16T12:52:50.724Z,1017.04
2017-07-16T12:53:59.657Z,1017.02
2017-07-16T12:55:08.576Z,1017.06
2017-07-16T12:56:17.504Z,1017
2017-07-16T12:57:26.462Z,1017
2017-07-16T12:58:35.428Z,1016.98
2017-07-16T12:59:44.352Z,1016.97
2017-07-16T13:00:53.279Z,1016.93
2017-07-16T13:02:02.274Z,1016.92
2017-07-16T13:03:12.248Z,1016.93
2017-07-16T13:04:26.646Z,1016.92
2017-07-16T13:05:38.156Z,1016.95
2017-07-16T13:06:48.487Z,1016.95
2017-07-16T13:08:09.138Z,1016.9
2017-07-16T13:09:29.121Z,1016.93
2017-07-16T13:10:42.717Z,1016.94
2017-07-16T13:11:54.877Z,1016.89
2017-07-16T13:13:03.796Z,1016.92
2017-07-16T13:14:12.717Z,1016.89
2017-07-16T13:15:21.647Z,1016.88
2017-07-16T13:16:30.577Z,1016.88
2017-07-16T13:17:39.599Z,1016.9
2017-07-16T13:18:48.528Z,1016.89
2017-07-16T13:19:57.458Z,1016.86
2017-07-16T13:21:06.558Z,1016.88
2017-07-16T13:22:15.482Z,1016.86
2017-07-16T13:23:24.657Z,1016.88
2017-07-16T13:24:33.583Z,1016.84
2017-07-16T13:25:42.553Z,1016.86
2017-07-16T13:26:51.494Z,1016.86
2017-07-16T13:28:00.425Z,1016.86
2017-07-16T13:29:09.358Z,1016.82
2017-07-16T13:30:18.299Z,1016.8
2017-07-16T13:31:27.230Z,1016.75
2017-07-16T13:32:36.151Z,1016.74
2017-07-16T13:33:45.080Z,1016.71
2017-07-16T13:34:54.000Z,1016.7
2017-07-16T13:36:02.918Z,1016.74
2017-07-16T13:37:11.865Z,1016.73
2017-07-16T13:38:20.824Z,1016.7
2017-07-16T13:39:29.746Z,1016.74
2017-07-16T13:40:38.708Z,1016.73
2017-07-16T13:41:47.642Z,1016.72
2017-07-16T13:42:56.562Z,1016.75
2017-07-16T13:44:05.526Z,1016.76
2017-07-16T13:45:14.456Z,1016.73
2017-07-16T13:46:23.382Z,1016.68
2017-07-16T13:47:32.387Z,1016.66
2017-07-16T13:48:41.400Z,1016.64
2017-07-16T13:49:50.323Z,1016.63
2017-07-16T13:50:59.836Z,1016.63
2017-07-16T13:52:08.761Z,1016.57
2017-07-16T13:53:17.688Z,1016.56
2017-07-16T13:54:26.679Z,1016.56
2017-07-16T13:55:35.601Z,1016.6
2017-07-16T13:56:44.524Z,1016.55
2017-07-16T13:57:53.775Z,1016.59
2017-07-16T13:59:02.691Z,1016.56